• Join FlightAware (Why Join?)
  • Login
  • US Flag 
03:06PM EDT


 

Airport Tracker/Info


-or-


 

Live Flight TrackerFlight Track Log ✈ SKW5500 ✈ 08-May-2013 ✈ KDEN - KASE

Flight Track Log - Related Links

Times and Time Zones

All times are in EDT time to prevent confusion due to time zone crossing. See the SKW5500 flight status page for this flight to view local times or setup timezone preferences in your user account.

Time Position Orientation Groundspeed Altitude Reporting Facility
EDT Latitude Longitude Course Direction KTS MPH feet Rate Location/Type
06:14PM 39.8167 -104.7167 270° West 241 277 7,600  Level Denver TRACON
06:15PM 39.8000 -104.8167 258° West 284 327 9,600 2,220 Climbing Denver TRACON
06:16PM 39.7629 -105.2002 259° West  Level FlightAware Approximate
06:16PM 39.7900 -104.9119 262° West 305 351 12,100  Level Denver Center
06:17PM 39.7496 -105.3350 255° West  Level FlightAware Approximate
06:17PM 39.7750 -105.0367 261° West 321 369 14,000  Level Denver Center
06:18PM 39.7215 -105.4666 255° West  Level FlightAware Approximate
06:18PM 39.7603 -105.1542 261° West 329 379 16,200  Level Denver Center
06:19PM 39.7000 -105.5993 270° West  Level FlightAware Approximate
06:19PM 39.7458 -105.2789 261° West 326 375 18,600  Level Denver Center
06:20PM 39.7278 -105.4242 261° West 335 386 19,700 1,200 Climbing Denver Center
06:21PM 39.7117 -105.5581 261° West 375 432 21,100 1,080 Climbing Denver Center
06:22PM 39.6958 -105.6983 262° West 393 452 22,000 420 Climbing Denver Center
06:23PM 39.6736 -105.8542 260° West 424 488 22,000 -360 Level Denver Center
06:24PM 39.6492 -106.0158 259° West 451 519 21,300 -1,440 Descending Denver Center
06:25PM 39.6258 -106.1706 259° West 435 501 19,100 -2,100 Descending Denver Center
06:26PM 39.6042 -106.3175 259° West 416 479 17,000 -1,620 Descending Denver Center
06:27PM 39.5822 -106.4522 258° West 385 443 15,900 -540 Descending Denver Center
06:28PM 39.5636 -106.5728 259° West 312 359 15,900  Level Denver Center
06:29PM 39.5461 -106.6819 258° West 281 323 15,900 -780 Level Denver Center
06:30PM 39.5289 -106.7761 257° West 274 315 14,300 -1,020 Descending Denver Center
06:31PM 39.5150 -106.8567 257° West 228 262 13,900 -240 Descending Denver Center
06:32PM 39.4986 -106.9342 255° West 220 253 13,900 -180 Level Denver Center
06:33PM 39.4533 -106.9739 214° Southwest 202 232 13,600 -600 Descending Denver Center
06:34PM 39.4006 -106.9550 165° South 186 214 12,700 -900 Descending Denver Center